createdAt,value
2022-09-06T00:00:24.370Z,14.209091
2022-09-06T00:05:21.580Z,14.130000
2022-09-06T00:10:21.500Z,14.018182
2022-09-06T00:15:21.598Z,13.940000
2022-09-06T00:20:21.516Z,13.990909
2022-09-06T00:25:21.556Z,14.110000
2022-09-06T00:30:19.293Z,14.245455
2022-09-06T00:35:22.376Z,14.300000
2022-09-06T00:40:25.568Z,14.300000
2022-09-06T00:45:21.495Z,14.300000
2022-09-06T00:50:19.606Z,14.300000
2022-09-06T00:55:22.862Z,14.290909
2022-09-06T01:00:21.593Z,14.290909
2022-09-06T01:05:29.056Z,14.200000
2022-09-06T01:10:22.270Z,14.200000
2022-09-06T01:15:23.254Z,14.125000
2022-09-06T01:20:26.625Z,14.100000
2022-09-06T01:25:21.508Z,14.100000
2022-09-06T01:30:21.549Z,14.000000
2022-09-06T01:35:23.885Z,14.000000
2022-09-06T01:40:27.093Z,13.900000
2022-09-06T01:45:21.487Z,13.888889
2022-09-06T01:50:21.533Z,13.800000
2022-09-06T01:55:24.385Z,13.700000
2022-09-06T02:00:21.561Z,13.700000
2022-09-06T02:05:21.622Z,13.754545
2022-09-06T02:10:21.594Z,13.800000
2022-09-06T02:15:24.727Z,13.840000
2022-09-06T02:20:21.704Z,13.800000
2022-09-06T02:25:21.549Z,13.727273
2022-09-06T02:30:22.513Z,13.700000
2022-09-06T02:35:22.117Z,13.625000
2022-09-06T02:40:22.052Z,13.520000
2022-09-06T02:45:19.705Z,13.433333
2022-09-06T02:50:22.924Z,13.341667
2022-09-06T02:55:22.095Z,13.222222
2022-09-06T03:00:21.945Z,13.066667
2022-09-06T03:05:22.018Z,12.955556
2022-09-06T03:10:23.306Z,12.900000
2022-09-06T03:15:22.064Z,12.900000
2022-09-06T03:20:32.836Z,12.983333
2022-09-06T03:25:22.050Z,13.000000
2022-09-06T03:30:24.216Z,13.040000
2022-09-06T03:35:27.239Z,13.130000
2022-09-06T03:40:22.002Z,13.266667
2022-09-06T03:45:22.053Z,13.381818
2022-09-06T03:50:24.571Z,13.363636
2022-09-06T03:55:22.077Z,13.300000
2022-09-06T04:00:22.122Z,13.215385
2022-09-06T04:05:21.992Z,13.200000
2022-09-06T04:10:24.971Z,13.210000
2022-09-06T04:15:22.099Z,13.350000
2022-09-06T04:20:22.090Z,13.590000
2022-09-06T04:25:22.761Z,13.870000
2022-09-06T04:30:22.100Z,14.150000
2022-09-06T04:35:22.474Z,14.450000
2022-09-06T04:40:22.526Z,14.810000
2022-09-06T04:45:23.213Z,15.237500
2022-09-06T04:50:22.459Z,15.700000
2022-09-06T04:55:29.403Z,16.100000
2022-09-06T05:00:22.535Z,16.425000
2022-09-06T05:05:24.074Z,16.720000
2022-09-06T05:10:22.527Z,17.080000
2022-09-06T05:15:22.525Z,17.388889
2022-09-06T05:20:22.450Z,17.658333
2022-09-06T05:25:23.998Z,17.800000
2022-09-06T05:30:22.494Z,17.900000
2022-09-06T05:35:22.511Z,18.118182
2022-09-06T05:40:21.259Z,18.318182
2022-09-06T05:45:24.703Z,18.600000
2022-09-06T05:50:22.483Z,18.758333
2022-09-06T05:55:30.790Z,18.930000
2022-09-06T06:00:22.511Z,19.000000
2022-09-06T06:05:24.848Z,19.000000
2022-09-06T06:10:22.624Z,18.990000
2022-09-06T06:15:19.037Z,19.044444
2022-09-06T06:20:34.630Z,19.200000
2022-09-06T06:25:22.464Z,19.440000
2022-09-06T06:30:28.761Z,19.466667
2022-09-06T06:35:22.498Z,19.400000
2022-09-06T06:40:22.921Z,19.408333
2022-09-06T06:45:22.627Z,19.580000
2022-09-06T06:50:22.483Z,19.722222
2022-09-06T06:55:23.256Z,19.881818
2022-09-06T07:00:27.652Z,19.820000
2022-09-06T07:06:13.534Z,19.890909
2022-09-06T07:10:38.045Z,19.960000
2022-09-06T07:15:22.574Z,20.000000
2022-09-06T07:20:23.872Z,20.000000
2022-09-06T07:25:26.964Z,20.000000
2022-09-06T07:30:22.549Z,20.040000
2022-09-06T07:35:21.082Z,20.045455
2022-09-06T07:40:24.180Z,20.000000
2022-09-06T07:45:22.542Z,20.000000
2022-09-06T07:50:59.107Z,20.188889
2022-09-06T07:55:21.538Z,20.430000
2022-09-06T08:00:24.708Z,20.661538
2022-09-06T08:06:13.206Z,20.600000
2022-09-06T08:10:30.846Z,20.509091
2022-09-06T08:15:21.958Z,20.318182
2022-09-06T08:20:25.654Z,20.300000
2022-09-06T08:25:22.643Z,20.350000
2022-09-06T08:30:19.696Z,20.545455
2022-09-06T08:35:22.637Z,20.744444
2022-09-06T08:40:22.610Z,20.800000
2022-09-06T08:45:22.701Z,20.863636
2022-09-06T08:50:22.569Z,20.800000
2022-09-06T08:55:23.165Z,20.766667
2022-09-06T09:00:22.695Z,20.508333
2022-09-06T09:05:22.670Z,20.340000
2022-09-06T09:10:22.761Z,20.300000
2022-09-06T09:15:23.477Z,20.355556
2022-09-06T09:20:27.803Z,20.438462
2022-09-06T09:25:22.629Z,20.577778
2022-09-06T09:30:52.571Z,20.684615
2022-09-06T09:35:24.269Z,20.700000
2022-09-06T09:40:22.661Z,20.733333
2022-09-06T09:45:22.485Z,20.800000
2022-09-06T09:50:24.704Z,20.766667
2022-09-06T09:55:24.727Z,20.557143
2022-09-06T10:00:22.630Z,20.528571
2022-09-06T10:05:18.938Z,20.733333
2022-09-06T10:10:22.654Z,20.800000
2022-09-06T10:15:25.035Z,20.728571
2022-09-06T10:20:22.768Z,20.723077
2022-09-06T10:25:22.568Z,20.771429
2022-09-06T10:30:22.838Z,20.736364
2022-09-06T10:35:22.618Z,20.690000
2022-09-06T10:40:22.655Z,20.969231
2022-09-06T10:45:22.626Z,21.333333
2022-09-06T10:50:23.226Z,21.576923
2022-09-06T10:55:23.001Z,21.654545
2022-09-06T11:00:22.596Z,21.533333
2022-09-06T11:05:38.375Z,21.318182
2022-09-06T11:10:23.703Z,21.225000
2022-09-06T11:15:22.606Z,21.388889
2022-09-06T11:20:22.704Z,21.516667
2022-09-06T11:25:22.683Z,21.541667
2022-09-06T11:30:24.263Z,21.500000
2022-09-06T11:35:22.923Z,21.355556
2022-09-06T11:40:31.246Z,21.200000
2022-09-06T11:45:22.676Z,21.190909
2022-09-06T11:50:24.527Z,21.100000
2022-09-06T11:55:23.028Z,21.050000
2022-09-06T12:00:22.747Z,20.933333
2022-09-06T12:05:21.787Z,20.909091
2022-09-06T12:10:24.856Z,21.118182
2022-09-06T12:15:22.642Z,21.281818
2022-09-06T12:20:19.094Z,21.400000
2022-09-06T12:25:22.750Z,21.455556
2022-09-06T12:30:25.324Z,21.500000
2022-09-06T12:36:05.819Z,21.500000
2022-09-06T12:40:19.445Z,21.410000
2022-09-06T12:45:27.077Z,21.322222
2022-09-06T12:50:25.774Z,21.225000
2022-09-06T12:55:22.890Z,21.200000
2022-09-06T13:00:23.026Z,21.200000
2022-09-06T13:05:22.976Z,21.200000
2022-09-06T13:10:22.799Z,21.200000
2022-09-06T13:15:22.780Z,21.200000
2022-09-06T13:20:22.806Z,21.200000
2022-09-06T13:25:23.898Z,21.200000
2022-09-06T13:30:22.724Z,21.109091
2022-09-06T13:35:23.359Z,21.100000
2022-09-06T13:40:22.888Z,21.150000
2022-09-06T13:45:24.224Z,21.100000
2022-09-06T13:50:27.258Z,21.008333
2022-09-06T13:55:22.858Z,21.000000
2022-09-06T14:00:21.603Z,21.000000
2022-09-06T14:05:24.678Z,21.000000
2022-09-06T14:10:22.882Z,21.000000
2022-09-06T14:15:22.817Z,21.000000
2022-09-06T14:20:22.401Z,21.000000
2022-09-06T14:25:25.375Z,20.960000
2022-09-06T14:30:22.869Z,20.863636
2022-09-06T14:35:19.557Z,20.800000
2022-09-06T14:40:22.856Z,20.718182
2022-09-06T14:45:26.643Z,20.533333
2022-09-06T14:50:23.076Z,20.330000
2022-09-06T14:55:22.978Z,20.130000
2022-09-06T15:00:23.112Z,20.027273
2022-09-06T15:05:22.952Z,19.963636
2022-09-06T15:10:22.849Z,19.900000
2022-09-06T15:15:23.159Z,19.920000
2022-09-06T15:20:23.592Z,20.050000
2022-09-06T15:25:22.928Z,20.220000
2022-09-06T15:30:22.844Z,20.300000
2022-09-06T15:35:22.958Z,20.236364
2022-09-06T15:40:24.078Z,20.122222
2022-09-06T15:45:22.906Z,20.008333
2022-09-06T15:50:47.544Z,19.900000
2022-09-06T15:55:22.968Z,19.800000
2022-09-06T16:00:24.371Z,19.681818
2022-09-06T16:06:38.373Z,19.600000
2022-09-06T16:10:22.994Z,19.500000
2022-09-06T16:15:22.867Z,19.500000
2022-09-06T16:20:25.001Z,19.500000
2022-09-06T16:25:22.975Z,19.372727
2022-09-06T16:30:19.197Z,19.161538
2022-09-06T16:35:23.338Z,18.958333
2022-09-06T16:40:25.914Z,18.900000
2022-09-06T16:45:23.417Z,18.945455
2022-09-06T16:50:19.448Z,19.066667
2022-09-06T16:55:22.718Z,19.181818
2022-09-06T17:00:25.863Z,19.120000
2022-09-06T17:05:23.451Z,19.030000
2022-09-06T17:10:19.929Z,18.981818
2022-09-06T17:15:23.408Z,18.854545
2022-09-06T17:20:26.357Z,18.763636
2022-09-06T17:25:23.450Z,18.700000
2022-09-06T17:30:23.355Z,18.700000
2022-09-06T17:35:24.466Z,18.750000
2022-09-06T17:40:26.747Z,18.776923
2022-09-06T17:45:23.790Z,18.870000
2022-09-06T17:50:23.867Z,18.881818
2022-09-06T17:55:23.987Z,18.900000
2022-09-06T18:00:27.184Z,18.900000
2022-09-06T18:05:23.939Z,18.988889
2022-09-06T18:10:24.300Z,19.000000
2022-09-06T18:15:24.502Z,18.877778
2022-09-06T18:20:23.771Z,18.800000
2022-09-06T18:25:18.871Z,18.800000
2022-09-06T18:30:23.924Z,18.844444
2022-09-06T18:35:25.249Z,18.900000
2022-09-06T18:40:24.320Z,18.872727
2022-09-06T18:45:19.336Z,18.810000
2022-09-06T18:50:24.454Z,18.938462
2022-09-06T18:55:25.738Z,19.037500
2022-09-06T19:00:24.397Z,19.000000
2022-09-06T19:05:19.953Z,19.000000
2022-09-06T19:10:24.432Z,19.000000
2022-09-06T19:15:26.173Z,19.000000
2022-09-06T19:20:24.446Z,18.990000
2022-09-06T19:25:20.267Z,18.875000
2022-09-06T19:30:24.372Z,18.800000
2022-09-06T19:35:26.556Z,18.800000
2022-09-06T19:40:24.617Z,18.712500
2022-09-06T19:45:20.536Z,18.675000
2022-09-06T19:50:24.746Z,18.600000
2022-09-06T19:55:26.827Z,18.600000
2022-09-06T20:00:24.793Z,18.518182
2022-09-06T20:05:20.955Z,18.500000
2022-09-06T20:10:24.705Z,18.500000
2022-09-06T20:15:27.211Z,18.622222
2022-09-06T20:20:24.717Z,18.700000
2022-09-06T20:25:24.747Z,18.628571
2022-09-06T20:30:24.852Z,18.600000
2022-09-06T20:35:28.078Z,18.600000
2022-09-06T20:40:19.039Z,18.518182
2022-09-06T20:45:25.171Z,18.516667
2022-09-06T20:50:25.304Z,18.600000
2022-09-06T20:55:25.310Z,18.636364
2022-09-06T21:00:19.461Z,18.700000
2022-09-06T21:05:25.194Z,18.600000
2022-09-06T21:10:25.705Z,18.518182
2022-09-06T21:15:28.900Z,18.330000
2022-09-06T21:20:20.473Z,18.210000
2022-09-06T21:25:25.230Z,18.200000
2022-09-06T21:30:26.484Z,18.230000
2022-09-06T21:35:25.531Z,18.372727
2022-09-06T21:40:20.717Z,18.390909
2022-09-06T21:45:25.591Z,18.233333
2022-09-06T21:50:26.966Z,17.936364
2022-09-06T21:55:30.117Z,17.712500
2022-09-06T22:00:21.886Z,17.850000
2022-09-06T22:05:25.514Z,17.833333
2022-09-06T22:10:27.329Z,17.472727
2022-09-06T22:15:25.697Z,17.180000
2022-09-06T22:20:21.607Z,16.863636
2022-09-06T22:25:25.595Z,16.680000
2022-09-06T22:30:27.954Z,16.600000
2022-09-06T22:35:18.874Z,16.480000
2022-09-06T22:40:22.054Z,16.500000
2022-09-06T22:45:26.062Z,16.375000
2022-09-06T22:50:28.259Z,15.787500
2022-09-06T22:55:19.326Z,15.020000
2022-09-06T23:00:22.395Z,14.470000
2022-09-06T23:05:26.048Z,13.970000
2022-09-06T23:10:28.752Z,13.650000
2022-09-06T23:15:19.652Z,13.500000
2022-09-06T23:20:25.983Z,13.333333
2022-09-06T23:25:26.422Z,13.100000
2022-09-06T23:30:25.972Z,12.783333
2022-09-06T23:35:20.445Z,12.480000
2022-09-06T23:40:23.574Z,12.400000
2022-09-06T23:45:26.791Z,12.487500
2022-09-06T23:50:29.819Z,12.507692
2022-09-06T23:55:20.966Z,12.340000
